Time;durP1;ratioP1;P1;durP2;ratioP2;P2;SDS_P1;SDS_P2;PMS_P1;PMS_P2;Temp;Humidity;BMP_temperature;BMP_pressure;BME280_temperature;BME280_humidity;BME280_pressure;Samples;Min_cycle;Max_cycle;Signal;HPM_P1;HPM_P2
2022/07/09 00:00:06;;;;;;;8.85;3.13;;;;;;;8.29;100.00;94228.16;2060052;28;20026;-81
2022/07/09 00:01:07;;;;;;;7.38;3.08;;;;;;;8.23;100.00;94228.91;2066609;28;20030;-83
2022/07/09 00:02:08;;;;;;;4.97;2.60;;;;;;;8.12;100.00;94230.72;2071751;28;20025;-83
2022/07/09 00:03:09;;;;;;;5.90;2.70;;;;;;;8.26;100.00;94228.16;2066156;28;20463;-83
2022/07/09 00:04:10;;;;;;;7.45;2.70;;;;;;;8.35;100.00;94228.56;2066860;28;20015;-82
2022/07/09 00:05:13;;;;;;;5.88;2.83;;;;;;;8.29;100.00;94222.06;2068180;28;20034;-83
2022/07/09 00:06:14;;;;;;;5.88;2.80;;;;;;;8.35;100.00;94231.25;2070582;28;20048;-82
2022/07/09 00:07:15;;;;;;;5.25;2.58;;;;;;;8.21;100.00;94225.81;2062001;28;20073;-82
2022/07/09 00:08:17;;;;;;;8.13;3.00;;;;;;;8.12;100.00;94230.72;2070186;28;20029;-81
2022/07/09 00:09:19;;;;;;;5.55;2.65;;;;;;;8.22;100.00;94227.38;2078600;28;20049;-80
2022/07/09 00:10:21;;;;;;;10.23;3.03;;;;;;;8.16;100.00;94232.25;2079501;28;20021;-83
2022/07/09 00:11:22;;;;;;;8.32;2.83;;;;;;;8.15;100.00;94232.66;2079002;28;20033;-83
2022/07/09 00:12:24;;;;;;;4.00;2.58;;;;;;;8.18;100.00;94224.69;2070164;28;20030;-83
2022/07/09 00:13:27;;;;;;;6.20;3.22;;;;;;;8.13;100.00;94229.59;2079011;28;20104;-81
2022/07/09 00:14:29;;;;;;;6.15;2.83;;;;;;;8.06;100.00;94225.75;2070653;28;20061;-82
2022/07/09 00:15:30;;;;;;;4.63;2.78;;;;;;;8.13;100.00;94224.28;2058472;28;20157;-83
2022/07/09 00:16:32;;;;;;;6.63;2.88;;;;;;;8.13;100.00;94221.63;2064738;28;20036;-83
2022/07/09 00:17:33;;;;;;;6.22;3.08;;;;;;;8.06;100.00;94227.66;2088657;28;20524;-81
2022/07/09 00:18:34;;;;;;;5.20;3.10;;;;;;;8.18;100.00;94223.94;2075127;28;20034;-82
2022/07/09 00:19:35;;;;;;;7.70;2.88;;;;;;;8.27;100.00;94221.69;2059876;28;20026;-82
2022/07/09 00:20:36;;;;;;;5.85;3.08;;;;;;;8.12;100.00;94218.19;2069228;28;20026;-83
2022/07/09 00:21:38;;;;;;;7.97;3.28;;;;;;;8.11;100.00;94221.22;2082906;28;20413;-82
2022/07/09 00:22:39;;;;;;;9.40;3.30;;;;;;;8.02;100.00;94216.22;2087006;28;20039;-82
2022/07/09 00:23:40;;;;;;;7.97;3.10;;;;;;;8.08;100.00;94212.84;2068656;28;20371;-82
2022/07/09 00:24:43;;;;;;;5.35;2.78;;;;;;;8.02;100.00;94209.00;2071608;28;20648;-82
2022/07/09 00:25:44;;;;;;;5.70;3.47;;;;;;;7.96;100.00;94215.06;2069318;28;20031;-82
2022/07/09 00:26:47;;;;;;;6.40;3.28;;;;;;;8.02;100.00;94213.56;2067031;28;20041;-81
2022/07/09 00:27:48;;;;;;;10.30;3.50;;;;;;;8.14;100.00;94209.81;2069020;28;20018;-82
2022/07/09 00:28:50;;;;;;;6.05;2.90;;;;;;;8.20;100.00;94205.66;2069841;28;20026;-82
2022/07/09 00:29:51;;;;;;;5.50;2.85;;;;;;;8.11;100.00;94210.56;2079616;28;20030;-82
2022/07/09 00:30:52;;;;;;;10.75;3.47;;;;;;;8.11;100.00;94207.91;2082352;28;20024;-83
2022/07/09 00:31:53;;;;;;;8.15;3.10;;;;;;;8.08;100.00;94210.19;2075499;28;20290;-82
2022/07/09 00:32:54;;;;;;;10.05;3.70;;;;;;;7.98;100.00;94208.22;2064791;28;20022;-83
2022/07/09 00:33:56;;;;;;;6.20;3.28;;;;;;;7.88;100.00;94211.56;2066250;28;20033;-82
2022/07/09 00:34:57;;;;;;;6.47;3.38;;;;;;;7.78;100.00;94205.06;2069332;28;20097;-83
2022/07/09 00:35:58;;;;;;;6.80;3.40;;;;;;;7.88;100.00;94200.94;2077499;28;20030;-81
2022/07/09 00:36:59;;;;;;;8.75;3.00;;;;;;;7.82;100.00;94197.84;2069291;28;20501;-82
2022/07/09 00:38:01;;;;;;;4.20;3.03;;;;;;;7.89;100.00;94199.78;2080560;28;20822;-82
2022/07/09 00:39:02;;;;;;;6.20;3.30;;;;;;;7.85;100.00;94190.25;2074721;28;20383;-83
2022/07/09 00:40:04;;;;;;;7.88;3.20;;;;;;;7.78;100.00;94197.06;2076777;28;20116;-81
2022/07/09 00:41:05;;;;;;;7.15;3.63;;;;;;;7.77;100.00;94200.09;2075383;28;20021;-83
2022/07/09 00:42:08;;;;;;;7.15;3.28;;;;;;;7.82;100.00;94192.53;2061412;28;20027;-83
2022/07/09 00:43:18;;;;;;;7.95;2.83;;;;;;;7.89;100.00;94193.69;2071460;28;20033;-82
2022/07/09 00:44:19;;;;;;;7.60;4.05;;;;;;;7.83;100.00;94196.72;2068694;28;20553;-82
2022/07/09 00:45:20;;;;;;;7.07;3.35;;;;;;;7.86;100.00;94191.78;2062871;28;20478;-82
2022/07/09 00:46:22;;;;;;;7.78;3.13;;;;;;;7.75;100.00;94186.41;2074548;28;20017;-84
2022/07/09 00:47:23;;;;;;;5.85;3.17;;;;;;;7.75;100.00;94189.81;2074585;28;20022;-83
2022/07/09 00:48:24;;;;;;;9.55;2.95;;;;;;;7.76;100.00;94187.91;2078603;28;20026;-83
2022/07/09 00:49:28;;;;;;;6.10;3.70;;;;;;;7.83;100.00;94188.72;2065117;28;20164;-81
2022/07/09 00:50:30;;;;;;;6.32;3.17;;;;;;;7.92;100.00;94182.31;2061375;28;20117;-82
2022/07/09 00:51:33;;;;;;;6.00;3.22;;;;;;;7.91;100.00;94188.78;2063850;28;20018;-82
2022/07/09 00:52:38;;;;;;;6.38;3.17;;;;;;;7.80;100.00;94183.38;2075594;28;20029;-81
2022/07/09 00:53:41;;;;;;;6.82;3.15;;;;;;;7.64;100.00;94182.88;2080765;28;20565;-83
2022/07/09 00:54:42;;;;;;;6.93;3.08;;;;;;;7.76;100.00;94183.34;2067001;28;20114;-82
2022/07/09 00:55:45;;;;;;;4.90;3.15;;;;;;;7.63;100.00;94179.47;2076338;28;20029;-83
2022/07/09 00:56:47;;;;;;;11.65;3.45;;;;;;;7.60;100.00;94179.47;2057715;28;20498;-82
2022/07/09 00:57:48;;;;;;;7.75;3.58;;;;;;;7.75;100.00;94181.06;2070846;28;20025;-81
2022/07/09 00:58:51;;;;;;;6.38;3.40;;;;;;;7.57;100.00;94176.41;2059756;28;20121;-82
2022/07/09 00:59:53;;;;;;;6.75;3.50;;;;;;;7.49;100.00;94177.47;2073189;28;20471;-82
2022/07/09 01:00:55;;;;;;;7.78;3.40;;;;;;;7.63;100.00;94176.81;2077901;28;20052;-82
2022/07/09 01:01:56;;;;;;;7.30;3.40;;;;;;;7.75;100.00;94175.75;2073295;28;20030;-81
2022/07/09 01:02:58;;;;;;;4.38;3.05;;;;;;;7.72;100.00;94171.94;2062785;28;20030;-81
2022/07/09 01:04:00;;;;;;;8.35;3.70;;;;;;;7.75;100.00;94168.53;2061714;28;20029;-82
2022/07/09 01:05:02;;;;;;;4.93;3.55;;;;;;;7.60;100.00;94171.50;2065436;28;20486;-83
2022/07/09 01:06:03;;;;;;;5.90;3.70;;;;;;;7.52;100.00;94171.44;2057503;28;20023;-83
2022/07/09 01:07:04;;;;;;;6.20;3.65;;;;;;;7.55;100.00;94168.03;2056853;28;20097;-82
2022/07/09 01:08:07;;;;;;;4.32;3.10;;;;;;;7.60;100.00;94163.50;2064424;28;20039;-81
2022/07/09 01:09:09;;;;;;;7.60;3.33;;;;;;;7.59;100.00;94170.69;2069588;28;20030;-82
2022/07/09 01:10:10;;;;;;;3.97;3.25;;;;;;;7.62;100.00;94174.53;2058997;28;20023;-82
2022/07/09 01:11:12;;;;;;;9.48;3.30;;;;;;;7.58;100.00;94167.28;2070560;28;20387;-81
2022/07/09 01:12:14;;;;;;;6.43;3.92;;;;;;;7.46;100.00;94166.81;2076434;28;20104;-83
2022/07/09 01:13:15;;;;;;;7.03;3.67;;;;;;;7.40;100.00;94162.97;2074735;28;20032;-83
2022/07/09 01:14:17;;;;;;;6.80;3.47;;;;;;;7.36;100.00;94165.59;2074066;28;20034;-82
2022/07/09 01:15:18;;;;;;;4.95;3.55;;;;;;;7.35;100.00;94164.09;2066478;28;20117;-82
2022/07/09 01:16:20;;;;;;;5.63;3.63;;;;;;;7.38;100.00;94160.69;2078406;28;20026;-82
2022/07/09 01:17:21;;;;;;;7.07;3.47;;;;;;;7.47;100.00;94163.78;2084069;28;20024;-82
2022/07/09 01:18:23;;;;;;;7.80;3.80;;;;;;;7.50;100.00;94165.69;2089389;28;20362;-83
2022/07/09 01:19:24;;;;;;;7.03;3.10;;;;;;;7.49;100.00;94166.06;2081476;28;20091;-81
2022/07/09 01:20:27;;;;;;;6.40;3.45;;;;;;;7.56;100.00;94166.91;2073623;28;20472;-83
2022/07/09 01:21:28;;;;;;;8.23;3.75;;;;;;;7.48;100.00;94157.34;2065042;28;20097;-81
2022/07/09 01:22:30;;;;;;;8.00;3.50;;;;;;;7.42;100.00;94152.72;2071525;28;20022;-83
2022/07/09 01:23:31;;;;;;;7.55;3.38;;;;;;;7.46;100.00;94156.97;2057346;28;20054;-83
2022/07/09 01:24:34;;;;;;;8.45;3.50;;;;;;;7.40;100.00;94155.00;2069644;28;20519;-81
2022/07/09 01:25:36;;;;;;;5.57;3.42;;;;;;;7.41;100.00;94161.84;2072016;28;20024;-82
2022/07/09 01:26:46;;;;;;;8.50;3.42;;;;;;;7.50;100.00;94157.72;2063787;28;20056;-82
2022/07/09 01:27:48;;;;;;;8.55;3.38;;;;;;;7.53;100.00;94153.56;2067704;28;20028;-82
2022/07/09 01:28:49;;;;;;;6.88;3.75;;;;;;;7.46;100.00;94153.50;2064991;28;20082;-82
2022/07/09 01:29:50;;;;;;;8.52;3.90;;;;;;;7.47;100.00;94155.81;2078533;28;20478;-82
2022/07/09 01:30:52;;;;;;;7.88;3.50;;;;;;;7.54;100.00;94155.09;2072679;28;20130;-82
2022/07/09 01:31:53;;;;;;;7.40;4.18;;;;;;;7.55;100.00;94162.72;2071396;28;20033;-82
2022/07/09 01:32:56;;;;;;;7.38;3.92;;;;;;;7.53;100.00;94154.31;2072527;28;20475;-82
2022/07/09 01:34:22;;;;;;;7.38;3.53;;;;;;;7.54;100.00;94153.19;2070324;28;20035;-84
2022/07/09 01:35:26;;;;;;;6.45;3.20;;;;;;;7.53;100.00;94153.56;2082907;28;20572;-82
2022/07/09 01:36:27;;;;;;;5.25;3.10;;;;;;;7.53;100.00;94154.31;2070219;28;20036;-82
2022/07/09 01:37:28;;;;;;;7.22;3.67;;;;;;;7.39;100.00;94156.91;2056935;28;20022;-82
2022/07/09 01:38:30;;;;;;;5.63;3.63;;;;;;;7.37;100.00;94145.84;2061649;28;20052;-81
2022/07/09 01:39:32;;;;;;;10.52;3.67;;;;;;;7.31;100.00;94148.09;2059954;28;20097;-83
2022/07/09 01:40:34;;;;;;;5.78;3.10;;;;;;;7.36;100.00;94148.88;2078652;28;20025;-83
2022/07/09 01:41:35;;;;;;;5.53;3.28;;;;;;;7.42;100.00;94155.38;2062355;28;20027;-83
2022/07/09 01:42:36;;;;;;;7.68;3.25;;;;;;;7.39;100.00;94156.13;2058906;28;20034;-81
2022/07/09 01:43:37;;;;;;;6.05;3.42;;;;;;;7.32;100.00;94148.84;2057270;28;20038;-83
2022/07/09 01:44:38;;;;;;;9.38;3.53;;;;;;;7.25;100.00;94154.13;2064625;28;20447;-83
2022/07/09 01:45:39;;;;;;;7.90;3.67;;;;;;;7.14;100.00;94143.41;2057148;28;20030;-81
2022/07/09 01:46:40;;;;;;;10.25;3.80;;;;;;;7.04;100.00;94142.19;2060789;28;20413;-82
2022/07/09 01:47:42;;;;;;;6.53;3.17;;;;;;;7.15;100.00;94134.28;2072825;28;20033;-83
2022/07/09 01:48:43;;;;;;;6.75;3.28;;;;;;;7.16;100.00;94140.41;2075266;28;20017;-82
2022/07/09 01:49:44;;;;;;;6.28;3.28;;;;;;;7.19;100.00;94139.63;2061224;28;20046;-81
2022/07/09 01:50:47;;;;;;;10.07;3.70;;;;;;;7.18;100.00;94143.44;2065937;28;20089;-81
2022/07/09 01:51:48;;;;;;;7.38;3.33;;;;;;;7.23;100.00;94137.78;2076932;28;20025;-83
2022/07/09 01:52:50;;;;;;;5.13;3.50;;;;;;;7.19;100.00;94134.31;2081071;28;20557;-83
2022/07/09 01:53:51;;;;;;;6.18;3.70;;;;;;;7.14;100.00;94142.66;2081261;28;20021;-82
2022/07/09 01:54:52;;;;;;;8.52;3.50;;;;;;;7.14;100.00;94140.75;2077369;28;20490;-82
2022/07/09 01:55:53;;;;;;;6.05;3.03;;;;;;;7.16;100.00;94129.75;2067741;28;20059;-82
2022/07/09 01:56:54;;;;;;;5.97;3.55;;;;;;;7.20;100.00;94127.88;2058255;28;20511;-83
2022/07/09 01:57:56;;;;;;;5.10;3.70;;;;;;;7.09;100.00;94132.34;2059320;28;20026;-83
2022/07/09 01:58:57;;;;;;;4.20;3.35;;;;;;;7.05;100.00;94127.75;2072240;28;20105;-82
2022/07/09 01:59:58;;;;;;;6.45;3.13;;;;;;;7.10;100.00;94134.63;2071002;28;20033;-83
2022/07/09 02:00:59;;;;;;;6.63;3.35;;;;;;;7.06;100.00;94126.63;2058375;28;20019;-80
2022/07/09 02:02:01;;;;;;;5.05;3.40;;;;;;;6.98;100.00;94126.94;2071711;28;20038;-81
2022/07/09 02:03:02;;;;;;;5.10;3.45;;;;;;;6.97;100.00;94128.84;2089218;28;20028;-81
2022/07/09 02:04:03;;;;;;;9.23;3.70;;;;;;;6.91;100.00;94127.66;2083353;28;20029;-81
2022/07/09 02:05:06;;;;;;;7.05;4.10;;;;;;;6.88;100.00;94128.38;2084976;28;21079;-83
2022/07/09 02:06:07;;;;;;;6.53;3.50;;;;;;;6.87;100.00;94129.50;2072596;28;20026;-82
2022/07/09 02:07:08;;;;;;;6.50;3.00;;;;;;;6.85;100.00;94128.34;2073825;28;20021;-82
2022/07/09 02:08:09;;;;;;;6.35;3.38;;;;;;;6.97;100.00;94128.84;2059837;28;20122;-82
2022/07/09 02:09:12;;;;;;;6.53;3.40;;;;;;;7.03;100.00;94127.38;2065893;28;20029;-81
2022/07/09 02:10:13;;;;;;;5.55;3.35;;;;;;;7.17;100.00;94128.63;2076283;28;20030;-82
2022/07/09 02:11:15;;;;;;;6.15;3.25;;;;;;;7.14;100.00;94122.13;2073681;28;20026;-81
2022/07/09 02:14:12;;;;;;;;;;;;;;;7.05;100.00;94125.09;2132019;27;20495;-81
2022/07/09 02:15:13;;;;;;;5.55;3.30;;;;;;;7.03;100.00;94122.06;2116151;28;19915;-81
2022/07/09 02:16:15;;;;;;;5.72;3.08;;;;;;;7.01;100.00;94126.22;2109102;28;20019;-84
2022/07/09 02:17:16;;;;;;;5.68;3.30;;;;;;;7.15;100.00;94125.56;2099964;28;20024;-83
2022/07/09 02:18:17;;;;;;;5.60;3.10;;;;;;;7.09;100.00;94124.38;2116640;28;20016;-85
2022/07/09 02:19:18;;;;;;;6.43;3.25;;;;;;;7.04;100.00;94118.28;2099216;28;20392;-82
2022/07/09 02:20:20;;;;;;;6.13;3.65;;;;;;;7.00;100.00;94122.78;2106643;28;20054;-84
2022/07/09 02:21:21;;;;;;;6.30;3.75;;;;;;;6.96;100.00;94122.00;2103726;28;20455;-86
2022/07/09 02:22:22;;;;;;;4.18;3.15;;;;;;;7.05;100.00;94127.00;2094804;28;20024;-85
2022/07/09 02:23:24;;;;;;;4.95;3.03;;;;;;;7.00;100.00;94120.13;2094983;28;20088;-84
2022/07/09 02:24:25;;;;;;;7.78;3.20;;;;;;;6.93;100.00;94122.72;2095260;28;20024;-84
2022/07/09 02:25:27;;;;;;;8.35;3.50;;;;;;;6.95;100.00;94122.38;2103144;28;20035;-82
2022/07/09 02:26:29;;;;;;;6.10;3.10;;;;;;;6.92;100.00;94120.44;2103661;28;20036;-82
2022/07/09 02:27:30;;;;;;;5.93;3.80;;;;;;;6.88;100.00;94120.41;2109390;28;20065;-83
2022/07/09 02:28:31;;;;;;;5.47;3.50;;;;;;;6.93;100.00;94125.38;2103577;28;20040;-83
2022/07/09 02:29:32;;;;;;;6.43;3.63;;;;;;;6.93;100.00;94121.97;2100038;28;20028;-82
2022/07/09 02:30:36;;;;;;;4.45;3.28;;;;;;;6.87;100.00;94124.19;2100637;28;20032;-82
2022/07/09 02:31:38;;;;;;;4.50;3.05;;;;;;;6.82;100.00;94121.88;2112184;28;20027;-80
2022/07/09 02:32:39;;;;;;;6.35;3.20;;;;;;;6.80;100.00;94122.25;2103149;28;20027;-84
2022/07/09 02:33:40;;;;;;;4.82;3.67;;;;;;;6.74;100.00;94131.69;2099145;28;20040;-80
2022/07/09 02:34:42;;;;;;;8.15;3.67;;;;;;;6.74;100.00;94120.28;2108806;27;20028;-85
2022/07/09 02:35:43;;;;;;;5.93;3.50;;;;;;;6.74;100.00;94118.38;2117056;28;20024;-83
2022/07/09 02:36:44;;;;;;;5.20;3.08;;;;;;;6.81;100.00;94123.78;2099837;28;20029;-81
2022/07/09 02:37:45;;;;;;;5.90;3.50;;;;;;;6.83;100.00;94123.41;2102568;28;20137;-83
2022/07/09 02:38:46;;;;;;;7.43;3.47;;;;;;;6.84;100.00;94118.84;2110875;28;20032;-83
2022/07/09 02:39:47;;;;;;;7.22;3.30;;;;;;;6.81;100.00;94118.47;2108907;28;20422;-85
2022/07/09 02:40:49;;;;;;;7.40;3.00;;;;;;;6.76;100.00;94128.66;2107560;28;20035;-81
2022/07/09 02:41:51;;;;;;;4.57;3.30;;;;;;;6.66;100.00;94134.63;2107742;28;20078;-81
2022/07/09 02:42:52;;;;;;;8.80;4.10;;;;;;;6.74;100.00;94121.03;2100115;28;20020;-84
2022/07/09 02:43:53;;;;;;;4.18;3.20;;;;;;;6.71;100.00;94121.00;2099118;28;20017;-83
2022/07/09 02:44:54;;;;;;;5.32;3.05;;;;;;;6.66;100.00;94129.31;2111299;28;20051;-83
2022/07/09 02:45:56;;;;;;;7.82;3.17;;;;;;;6.67;100.00;94125.53;2100758;28;20564;-81
2022/07/09 02:46:57;;;;;;;5.50;3.60;;;;;;;6.65;100.00;94130.44;2099442;28;20477;-83
2022/07/09 02:47:58;;;;;;;6.40;3.50;;;;;;;6.73;100.00;94132.06;2092488;28;20029;-83
2022/07/09 02:49:00;;;;;;;5.03;3.33;;;;;;;6.78;100.00;94123.75;2091185;28;20022;-83
2022/07/09 02:50:03;;;;;;;7.57;3.17;;;;;;;6.69;100.00;94128.59;2099807;28;20125;-85
2022/07/09 02:51:06;;;;;;;5.15;3.22;;;;;;;6.74;100.00;94126.38;2099315;28;20044;-84
2022/07/09 02:52:07;;;;;;;5.10;3.05;;;;;;;6.72;100.00;94133.19;2103223;28;20016;-84
2022/07/09 02:53:08;;;;;;;11.43;3.67;;;;;;;6.62;100.00;94134.59;2096986;28;20024;-84
2022/07/09 02:54:10;;;;;;;5.50;3.20;;;;;;;6.70;100.00;94133.53;2100141;28;20021;-82
2022/07/09 02:55:12;;;;;;;7.40;3.38;;;;;;;6.73;100.00;94135.47;2099383;28;20025;-81
2022/07/09 02:56:13;;;;;;;7.15;3.33;;;;;;;6.73;100.00;94124.09;2090908;28;20017;-82
2022/07/09 02:57:14;;;;;;;4.40;3.08;;;;;;;6.69;100.00;94125.94;2093703;28;20021;-83
2022/07/09 02:58:15;;;;;;;6.05;3.50;;;;;;;6.69;100.00;94124.03;2100002;28;20028;-84
2022/07/09 02:59:16;;;;;;;6.50;3.58;;;;;;;6.67;100.00;94121.00;2107922;28;20032;-82
2022/07/09 03:00:17;;;;;;;6.20;3.08;;;;;;;6.61;100.00;94132.31;2099717;28;20108;-83
2022/07/09 03:01:18;;;;;;;6.63;3.20;;;;;;;6.62;100.00;94123.19;2116908;27;20023;-85
2022/07/09 03:02:19;;;;;;;6.68;3.33;;;;;;;6.62;100.00;94125.88;2108424;28;20020;-83
2022/07/09 03:03:23;;;;;;;7.22;3.30;;;;;;;6.57;100.00;94127.72;2099984;28;20464;-80
2022/07/09 03:04:24;;;;;;;8.35;3.78;;;;;;;6.55;100.00;94130.00;2099295;28;20070;-83
2022/07/09 03:05:25;;;;;;;7.10;3.60;;;;;;;6.52;100.00;94133.38;2099730;28;20425;-82
2022/07/09 03:06:26;;;;;;;6.43;3.38;;;;;;;6.45;100.00;94127.22;2099772;28;20035;-83
2022/07/09 03:07:28;;;;;;;8.00;3.00;;;;;;;6.46;100.00;94123.44;2099822;28;20550;-84
2022/07/09 03:08:29;;;;;;;5.70;3.15;;;;;;;6.54;100.00;94122.38;2099861;28;20488;-84
2022/07/09 03:09:30;;;;;;;7.60;2.83;;;;;;;6.55;100.00;94122.03;2110941;28;20027;-83
2022/07/09 03:10:32;;;;;;;6.13;3.13;;;;;;;6.59;100.00;94118.66;2102243;28;20024;-85
2022/07/09 03:11:33;;;;;;;3.83;2.97;;;;;;;6.62;100.00;94126.63;2094739;28;20385;-81
2022/07/09 03:12:34;;;;;;;10.90;3.00;;;;;;;6.66;100.00;94127.41;2103179;28;20051;-85
2022/07/09 03:13:36;;;;;;;4.40;3.13;;;;;;;6.67;100.00;94120.22;2119740;27;20038;-83
2022/07/09 03:14:37;;;;;;;3.45;2.78;;;;;;;6.69;100.00;94123.28;2110854;28;20076;-83
2022/07/09 03:15:38;;;;;;;6.30;3.10;;;;;;;6.70;100.00;94124.81;2093813;28;20024;-82
2022/07/09 03:16:39;;;;;;;6.80;2.80;;;;;;;6.63;100.00;94122.06;2103118;28;20032;-81
2022/07/09 03:17:40;;;;;;;6.43;2.78;;;;;;;6.47;100.00;94125.72;2111272;28;20059;-81
2022/07/09 03:18:41;;;;;;;4.60;3.10;;;;;;;6.53;100.00;94124.25;2100116;28;20374;-82
2022/07/09 03:19:43;;;;;;;3.72;2.85;;;;;;;6.60;100.00;94120.16;2093951;28;20029;-84
2022/07/09 03:20:44;;;;;;;5.40;2.80;;;;;;;6.63;100.00;94122.06;2101048;28;20060;-82
2022/07/09 03:21:45;;;;;;;7.95;3.10;;;;;;;6.63;100.00;94124.72;2099541;28;20465;-84
2022/07/09 03:22:46;;;;;;;4.97;2.97;;;;;;;6.49;100.00;94126.13;2102868;28;20024;-85
2022/07/09 03:23:47;;;;;;;5.13;3.05;;;;;;;6.43;100.00;94124.94;2094888;28;20413;-82
2022/07/09 03:24:49;;;;;;;8.43;3.00;;;;;;;6.42;100.00;94133.28;2094311;28;20021;-84
2022/07/09 03:25:50;;;;;;;3.05;2.65;;;;;;;6.39;100.00;94124.13;2101607;28;20526;-83
2022/07/09 03:26:51;;;;;;;4.47;2.92;;;;;;;6.41;100.00;94121.88;2102712;28;20041;-82
2022/07/09 03:27:52;;;;;;;5.03;2.88;;;;;;;6.49;100.00;94122.69;2093199;28;20079;-82
2022/07/09 03:28:53;;;;;;;5.55;2.75;;;;;;;6.53;100.00;94112.88;2110026;27;20022;-82
2022/07/09 03:29:54;;;;;;;6.95;2.80;;;;;;;6.44;100.00;94120.38;2117113;27;20032;-82
2022/07/09 03:30:56;;;;;;;6.28;2.92;;;;;;;6.51;100.00;94123.13;2097322;28;20024;-81
2022/07/09 03:31:57;;;;;;;5.20;2.70;;;;;;;6.41;100.00;94129.84;2089455;28;20446;-83
2022/07/09 03:32:58;;;;;;;9.32;3.53;;;;;;;6.44;100.00;94128.34;2097592;28;20024;-82
2022/07/09 03:34:00;;;;;;;5.32;3.08;;;;;;;6.36;100.00;94116.88;2096740;28;20052;-82
2022/07/09 03:35:01;;;;;;;7.10;2.80;;;;;;;6.36;100.00;94127.50;2096694;28;20858;-82
2022/07/09 03:36:03;;;;;;;5.68;3.00;;;;;;;6.44;100.00;94118.47;2105212;28;20051;-81
2022/07/09 03:37:05;;;;;;;7.75;3.00;;;;;;;6.40;100.00;94120.34;2094609;28;20016;-81
2022/07/09 03:38:06;;;;;;;8.32;3.35;;;;;;;6.39;100.00;94121.47;2097267;28;20024;-82
2022/07/09 03:39:08;;;;;;;4.70;3.00;;;;;;;6.40;100.00;94123.00;2094996;28;20025;-82
2022/07/09 03:40:09;;;;;;;6.20;2.78;;;;;;;6.35;100.00;94120.66;2101755;28;20020;-82
2022/07/09 03:41:11;;;;;;;8.48;3.30;;;;;;;6.36;100.00;94122.19;2101174;28;20111;-83
2022/07/09 03:42:13;;;;;;;4.88;2.88;;;;;;;6.36;100.00;94126.75;2094331;28;20021;-81
2022/07/09 03:43:14;;;;;;;5.00;3.20;;;;;;;6.33;100.00;94128.25;2102111;28;20102;-84
2022/07/09 03:44:15;;;;;;;5.50;2.70;;;;;;;6.34;100.00;94121.81;2094747;28;20024;-82
2022/07/09 03:45:16;;;;;;;5.43;3.10;;;;;;;6.43;100.00;94127.59;2088480;28;20033;-81
2022/07/09 03:46:18;;;;;;;4.78;3.00;;;;;;;6.31;100.00;94128.59;2093767;28;20028;-82
2022/07/09 03:47:19;;;;;;;6.45;2.97;;;;;;;6.40;100.00;94127.53;2094065;28;20070;-83
2022/07/09 03:48:20;;;;;;;5.18;3.00;;;;;;;6.34;100.00;94129.75;2093104;28;20115;-82
2022/07/09 03:49:21;;;;;;;5.20;2.83;;;;;;;6.42;100.00;94127.97;2093613;28;20021;-83
2022/07/09 03:50:22;;;;;;;5.32;2.72;;;;;;;6.39;100.00;94128.69;2101087;28;20021;-81
2022/07/09 03:51:23;;;;;;;4.50;2.75;;;;;;;6.41;100.00;94129.84;2093234;28;20021;-83
2022/07/09 03:52:24;;;;;;;7.80;2.92;;;;;;;6.46;100.00;94123.44;2089797;28;20048;-83
2022/07/09 03:53:27;;;;;;;4.80;2.65;;;;;;;6.45;100.00;94128.00;2097058;28;20377;-84
2022/07/09 03:54:29;;;;;;;8.07;3.13;;;;;;;6.41;100.00;94116.56;2085506;28;20079;-84
2022/07/09 03:55:30;;;;;;;7.18;2.92;;;;;;;6.40;100.00;94115.03;2093225;28;20500;-84
2022/07/09 03:56:31;;;;;;;6.28;3.00;;;;;;;6.50;100.00;94116.28;2111680;28;20035;-82
2022/07/09 03:57:33;;;;;;;5.00;3.17;;;;;;;6.44;100.00;94121.13;2097424;28;20106;-82
2022/07/09 03:58:34;;;;;;;5.38;2.90;;;;;;;6.42;100.00;94127.97;2089010;28;20032;-82
2022/07/09 03:59:35;;;;;;;5.93;2.92;;;;;;;6.42;100.00;94130.59;2097136;28;20024;-83
2022/07/09 04:00:37;;;;;;;5.82;2.65;;;;;;;6.39;100.00;94126.78;2093039;28;20067;-83
2022/07/09 04:01:40;;;;;;;3.50;2.45;;;;;;;6.40;100.00;94133.59;2095089;28;20028;-81
2022/07/09 04:02:41;;;;;;;7.93;3.40;;;;;;;6.29;100.00;94127.44;2085097;28;20048;-80
2022/07/09 04:03:44;;;;;;;5.78;2.92;;;;;;;6.32;100.00;94126.69;2093588;28;20052;-84
2022/07/09 04:04:46;;;;;;;6.28;2.92;;;;;;;6.43;100.00;94127.59;2097618;28;20029;-82
2022/07/09 04:05:47;;;;;;;6.03;2.90;;;;;;;6.37;100.00;94130.94;2100822;28;20160;-85
2022/07/09 04:06:48;;;;;;;7.10;2.95;;;;;;;6.40;100.00;94135.50;2093664;28;20024;-83
2022/07/09 04:07:50;;;;;;;7.97;2.78;;;;;;;6.38;100.00;94129.81;2093404;28;20043;-85
2022/07/09 04:08:51;;;;;;;5.60;3.08;;;;;;;6.35;100.00;94125.97;2100572;28;20017;-84
2022/07/09 04:09:55;;;;;;;5.05;2.58;;;;;;;6.29;100.00;94135.41;2102598;28;20024;-83
2022/07/09 04:10:56;;;;;;;7.03;2.67;;;;;;;6.38;100.00;94129.81;2094110;28;20085;-83
2022/07/09 04:11:59;;;;;;;8.15;2.97;;;;;;;6.43;100.00;94132.91;2101390;28;20023;-82
2022/07/09 04:13:00;;;;;;;4.88;2.90;;;;;;;6.44;100.00;94120.38;2093425;28;20444;-84
2022/07/09 04:14:03;;;;;;;7.55;3.08;;;;;;;6.53;100.00;94131.47;2101457;28;20052;-83
2022/07/09 04:15:05;;;;;;;6.05;2.75;;;;;;;6.64;100.00;94131.59;2103176;28;20020;-84
2022/07/09 04:16:06;;;;;;;5.45;2.72;;;;;;;6.58;100.00;94131.13;2101876;28;20463;-86
2022/07/09 04:17:12;;;;;;;7.55;3.20;;;;;;;6.64;100.00;94128.94;2103282;28;20035;-81
2022/07/09 04:18:15;;;;;;;6.35;2.90;;;;;;;6.58;100.00;94125.81;2095342;28;20401;-84
2022/07/09 04:19:16;;;;;;;4.82;2.63;;;;;;;6.60;100.00;94125.47;2093890;28;20505;-84
2022/07/09 04:20:18;;;;;;;4.15;2.72;;;;;;;6.64;100.00;94131.59;2101955;28;20020;-83
2022/07/09 04:21:23;;;;;;;4.75;2.65;;;;;;;6.72;100.00;94139.25;2101635;28;20020;-84
2022/07/09 04:22:24;;;;;;;4.45;2.80;;;;;;;6.70;100.00;94125.56;2092957;28;20119;-82
2022/07/09 04:23:26;;;;;;;4.95;2.88;;;;;;;6.70;100.00;94130.13;2078563;28;20160;-85
2022/07/09 04:24:27;;;;;;;3.80;2.78;;;;;;;6.77;100.00;94122.22;2084962;28;20478;-81
2022/07/09 04:25:30;;;;;;;4.45;2.80;;;;;;;6.74;100.00;94122.94;2095192;28;20056;-82
2022/07/09 04:26:34;;;;;;;6.05;3.13;;;;;;;6.77;100.00;94135.50;2097535;28;20416;-83
2022/07/09 04:27:38;;;;;;;8.88;4.03;;;;;;;6.80;100.00;94132.88;2092708;28;20033;-83
2022/07/09 04:28:39;;;;;;;6.57;3.00;;;;;;;6.80;100.00;94130.22;2094384;28;20036;-84
2022/07/09 04:29:41;;;;;;;5.75;3.30;;;;;;;6.86;100.00;94132.56;2101766;28;20055;-84
2022/07/09 04:30:42;;;;;;;3.65;2.83;;;;;;;6.91;100.00;94132.97;2096955;28;20070;-82
2022/07/09 04:31:44;;;;;;;3.95;2.08;;;;;;;6.98;100.00;94130.38;2088750;28;20025;-83
2022/07/09 04:32:51;;;;;;;5.15;2.90;;;;;;;7.03;100.00;94130.03;2090114;28;20048;-82
2022/07/09 04:33:52;;;;;;;6.57;2.88;;;;;;;7.05;100.00;94132.31;2093600;28;20025;-82
2022/07/09 04:34:55;;;;;;;3.60;2.42;;;;;;;7.06;100.00;94139.91;2092753;28;20031;-81
2022/07/09 04:35:56;;;;;;;5.68;2.75;;;;;;;7.10;100.00;94125.91;2088252;28;20470;-81
2022/07/09 04:36:57;;;;;;;3.50;2.58;;;;;;;7.14;100.00;94132.78;2087548;28;20033;-84
2022/07/09 04:37:58;;;;;;;5.38;2.40;;;;;;;7.15;100.00;94131.63;2094443;28;20021;-80
2022/07/09 04:39:00;;;;;;;6.50;2.80;;;;;;;7.22;100.00;94130.94;2101514;28;20125;-83
2022/07/09 04:40:03;;;;;;;5.07;2.83;;;;;;;7.24;100.00;94133.97;2101906;28;20533;-82
2022/07/09 04:41:04;;;;;;;4.72;2.60;;;;;;;7.27;100.00;94130.59;2084959;28;20473;-83
2022/07/09 04:42:06;;;;;;;3.85;2.47;;;;;;;7.29;100.00;94136.31;2085084;28;20032;-85
2022/07/09 04:43:07;;;;;;;4.30;2.63;;;;;;;7.36;100.00;94132.94;2100908;28;20020;-83
2022/07/09 04:44:11;;;;;;;6.03;2.92;;;;;;;7.37;100.00;94129.88;2088242;28;20131;-85
2022/07/09 04:45:12;;;;;;;4.03;3.08;;;;;;;7.40;100.00;94126.50;2095923;28;20504;-83
2022/07/09 04:46:16;;;;;;;3.78;2.45;;;;;;;7.47;100.00;94133.78;2093620;28;20363;-83
2022/07/09 04:47:18;;;;;;;5.68;2.80;;;;;;;7.50;100.00;94127.69;2096211;28;20052;-85
2022/07/09 04:48:19;;;;;;;5.32;2.72;;;;;;;7.53;100.00;94126.97;2088883;28;20021;-84
2022/07/09 04:49:20;;;;;;;3.33;2.47;;;;;;;7.54;100.00;94134.56;2096440;28;20024;-84
2022/07/09 04:50:22;;;;;;;6.20;2.47;;;;;;;7.60;100.00;94129.69;2084636;28;20033;-84
2022/07/09 04:51:24;;;;;;;6.05;2.83;;;;;;;7.64;100.00;94132.34;2101541;28;20024;-83
2022/07/09 04:52:26;;;;;;;11.85;3.40;;;;;;;7.66;100.00;94130.09;2102749;28;20076;-85